Time;durP1;ratioP1;P1;durP2;ratioP2;P2;SDS_P1;SDS_P2;PMS_P1;PMS_P2;Temp;Humidity;BMP_temperature;BMP_pressure;BME280_temperature;BME280_humidity;BME280_pressure;Samples;Min_cycle;Max_cycle;Signal;HPM_P1;HPM_P2
2022/05/07 00:01:03;;;;;;;45.50;34.17;;;;;;;;;;5108457;28;20039;-68
2022/05/07 00:03:29;;;;;;;52.70;35.05;;;;;;;;;;5108737;28;20038;-68
2022/05/07 00:05:55;;;;;;;45.65;31.50;;;;;;;;;;5105638;28;20099;-68
2022/05/07 00:08:21;;;;;;;54.40;35.08;;;;;;;;;;5107702;28;20152;-69
2022/05/07 00:10:48;;;;;;;47.95;34.42;;;;;;;;;;5107114;28;20512;-68
2022/05/07 00:13:14;;;;;;;44.90;31.75;;;;;;;;;;5107515;28;20047;-69
2022/05/07 00:18:00;;;;;;;50.67;33.17;;;;;;;;;;5107842;28;20051;-68
2022/05/07 00:18:27;;;;;;;47.47;33.70;;;;;;;;;;5099434;28;20043;-68
2022/05/07 00:20:53;;;;;;;58.35;38.05;;;;;;;;;;5105887;28;20043;-69
2022/05/07 00:23:19;;;;;;;46.63;32.90;;;;;;;;;;5108444;28;20493;-68
2022/05/07 00:25:45;;;;;;;49.50;34.55;;;;;;;;;;5102537;28;20039;-68
2022/05/07 00:28:11;;;;;;;53.20;35.13;;;;;;;;;;5107998;28;20035;-68
2022/05/07 00:30:37;;;;;;;50.72;34.58;;;;;;;;;;5107976;28;20478;-68
2022/05/07 00:33:04;;;;;;;48.20;34.85;;;;;;;;;;5107367;28;20040;-68
2022/05/07 00:35:30;;;;;;;57.80;36.40;;;;;;;;;;5105838;28;20074;-68
2022/05/07 00:37:56;;;;;;;48.53;33.53;;;;;;;;;;5089709;28;20055;-68
2022/05/07 00:40:22;;;;;;;46.85;33.90;;;;;;;;;;5107850;28;20031;-68
2022/05/07 00:42:48;;;;;;;46.78;33.70;;;;;;;;;;5100329;28;20046;-68
2022/05/07 00:45:14;;;;;;;50.42;35.58;;;;;;;;;;5107846;28;20046;-68
2022/05/07 00:47:40;;;;;;;54.58;34.17;;;;;;;;;;5108431;28;20507;-68
2022/05/07 00:52:52;;;;;;;50.63;33.70;;;;;;;;;;5106176;28;20130;-69
2022/05/07 00:55:18;;;;;;;52.97;34.95;;;;;;;;;;5090173;28;20054;-68
2022/05/07 00:57:44;;;;;;;52.08;34.30;;;;;;;;;;5108431;28;20143;-68
2022/05/07 01:00:11;;;;;;;43.45;32.70;;;;;;;;;;5106242;28;20153;-68
2022/05/07 01:02:41;;;;;;;49.20;34.10;;;;;;;;;;5110581;28;20044;-68
2022/05/07 01:05:08;;;;;;;48.83;33.33;;;;;;;;;;5109400;28;20044;-68
2022/05/07 01:07:34;;;;;;;44.50;31.27;;;;;;;;;;5111144;28;20075;-68
2022/05/07 01:10:01;;;;;;;48.63;33.60;;;;;;;;;;5111143;28;20445;-69
2022/05/07 01:12:28;;;;;;;52.05;32.50;;;;;;;;;;5111849;28;20039;-69
2022/05/07 01:14:56;;;;;;;49.50;32.38;;;;;;;;;;5109918;28;20047;-68
2022/05/07 01:17:23;;;;;;;46.90;30.88;;;;;;;;;;5111409;28;20196;-69
2022/05/07 01:19:51;;;;;;;45.42;32.22;;;;;;;;;;5105751;27;20478;-69
2022/05/07 01:22:18;;;;;;;51.88;32.20;;;;;;;;;;5111057;28;20096;-69
2022/05/07 01:24:44;;;;;;;44.40;33.28;;;;;;;;;;5107201;28;20396;-69
2022/05/07 01:27:10;;;;;;;39.75;29.65;;;;;;;;;;5109381;28;20063;-68
2022/05/07 01:29:36;;;;;;;43.40;31.35;;;;;;;;;;5111159;28;20053;-68
2022/05/07 01:32:03;;;;;;;49.08;33.45;;;;;;;;;;5110150;28;20043;-69
2022/05/07 01:34:29;;;;;;;42.25;29.20;;;;;;;;;;5108418;28;20119;-68
2022/05/07 01:36:55;;;;;;;45.28;31.98;;;;;;;;;;5108954;28;20433;-69
2022/05/07 01:39:21;;;;;;;44.95;31.25;;;;;;;;;;5109612;28;20039;-68
2022/05/07 01:41:47;;;;;;;48.70;32.17;;;;;;;;;;5103543;28;20042;-69
2022/05/07 01:44:13;;;;;;;45.80;30.23;;;;;;;;;;5075653;28;20077;-68
2022/05/07 01:49:44;;;;;;;43.72;30.23;;;;;;;;;;5089911;28;20048;-68
2022/05/07 01:52:10;;;;;;;43.25;29.95;;;;;;;;;;5071354;28;20079;-69
2022/05/07 01:54:36;;;;;;;39.67;29.45;;;;;;;;;;5084515;28;20515;-68
2022/05/07 01:57:03;;;;;;;46.13;30.85;;;;;;;;;;5092773;28;20040;-68
2022/05/07 01:59:29;;;;;;;46.45;30.15;;;;;;;;;;5109300;28;20063;-69
2022/05/07 02:01:55;;;;;;;41.08;28.95;;;;;;;;;;5109340;28;20039;-68
2022/05/07 02:04:21;;;;;;;42.15;27.38;;;;;;;;;;5103748;28;20114;-68
2022/05/07 02:06:47;;;;;;;41.80;31.42;;;;;;;;;;5109845;28;20051;-68
2022/05/07 02:09:13;;;;;;;41.05;30.13;;;;;;;;;;5109034;28;20096;-68
2022/05/07 02:11:40;;;;;;;36.95;27.30;;;;;;;;;;5109800;28;20040;-69
2022/05/07 02:14:06;;;;;;;41.47;29.45;;;;;;;;;;5110205;28;20611;-69
2022/05/07 02:16:32;;;;;;;36.15;25.83;;;;;;;;;;5108467;28;20088;-69
2022/05/07 02:18:59;;;;;;;37.78;28.30;;;;;;;;;;5104388;28;20155;-68
2022/05/07 02:21:25;;;;;;;41.47;27.85;;;;;;;;;;5110231;28;20092;-68
2022/05/07 02:23:51;;;;;;;45.40;28.70;;;;;;;;;;5108968;28;20169;-69
2022/05/07 02:26:17;;;;;;;37.50;26.60;;;;;;;;;;5108783;28;20442;-69
2022/05/07 02:28:44;;;;;;;31.02;24.40;;;;;;;;;;5089239;28;20123;-70
2022/05/07 02:31:10;;;;;;;37.10;25.45;;;;;;;;;;5110461;28;20527;-69
2022/05/07 02:33:36;;;;;;;36.83;25.10;;;;;;;;;;5110087;28;20477;-69
2022/05/07 02:36:03;;;;;;;36.05;26.58;;;;;;;;;;5106841;28;20566;-68
2022/05/07 02:38:29;;;;;;;34.88;25.20;;;;;;;;;;5110088;28;20056;-69
2022/05/07 02:43:40;;;;;;;36.05;25.65;;;;;;;;;;5107491;28;20054;-69
2022/05/07 02:46:06;;;;;;;36.88;27.55;;;;;;;;;;5107706;28;20047;-68
2022/05/07 02:48:36;;;;;;;38.03;26.17;;;;;;;;;;5102345;28;20046;-69
2022/05/07 02:51:03;;;;;;;36.40;25.98;;;;;;;;;;5097583;28;20170;-68
2022/05/07 02:53:29;;;;;;;34.53;26.02;;;;;;;;;;5102618;28;20107;-68
2022/05/07 02:55:55;;;;;;;36.25;25.60;;;;;;;;;;5107649;28;20043;-69
2022/05/07 02:58:21;;;;;;;33.15;25.90;;;;;;;;;;5101759;28;20501;-69
2022/05/07 03:00:49;;;;;;;35.08;26.45;;;;;;;;;;5109659;28;20670;-68
2022/05/07 03:03:16;;;;;;;35.88;26.55;;;;;;;;;;5102502;28;20146;-69
2022/05/07 03:05:42;;;;;;;35.67;26.15;;;;;;;;;;5106390;28;20032;-68
2022/05/07 03:08:08;;;;;;;31.02;24.25;;;;;;;;;;5104925;28;20035;-69
2022/05/07 03:10:34;;;;;;;34.35;24.73;;;;;;;;;;5109067;28;20075;-68
2022/05/07 03:13:00;;;;;;;36.53;27.13;;;;;;;;;;5107746;28;20039;-69
2022/05/07 03:15:26;;;;;;;31.40;24.35;;;;;;;;;;5102875;28;20085;-69
2022/05/07 03:17:52;;;;;;;33.65;25.75;;;;;;;;;;5106376;28;20102;-69
2022/05/07 03:20:19;;;;;;;31.38;25.00;;;;;;;;;;5103398;28;20071;-69
2022/05/07 03:22:45;;;;;;;31.88;26.50;;;;;;;;;;5106657;28;20036;-69
2022/05/07 03:25:12;;;;;;;35.75;27.02;;;;;;;;;;5109085;28;20515;-68
2022/05/07 03:27:38;;;;;;;37.65;26.23;;;;;;;;;;5107907;28;20232;-69
2022/05/07 03:30:06;;;;;;;38.83;28.45;;;;;;;;;;5103747;28;20066;-69
2022/05/07 03:32:33;;;;;;;34.72;26.70;;;;;;;;;;5103106;28;20533;-69
2022/05/07 03:34:59;;;;;;;36.55;26.48;;;;;;;;;;5107846;28;20092;-69
2022/05/07 03:37:26;;;;;;;34.60;25.27;;;;;;;;;;5107199;28;20723;-68
2022/05/07 03:39:52;;;;;;;32.65;24.10;;;;;;;;;;5100175;28;20048;-69
2022/05/07 03:42:20;;;;;;;33.33;26.13;;;;;;;;;;5103841;28;20582;-69
2022/05/07 03:44:49;;;;;;;39.80;25.90;;;;;;;;;;5105627;28;20050;-69
2022/05/07 03:47:15;;;;;;;39.78;26.48;;;;;;;;;;5107047;28;20054;-68
2022/05/07 03:49:41;;;;;;;36.75;27.27;;;;;;;;;;5107969;28;20513;-68
2022/05/07 03:54:52;;;;;;;33.70;26.35;;;;;;;;;;5106631;28;20110;-68
2022/05/07 03:57:18;;;;;;;36.25;25.77;;;;;;;;;;5088291;28;20039;-68
2022/05/07 03:59:44;;;;;;;38.20;27.13;;;;;;;;;;5103302;28;20067;-69
2022/05/07 04:02:10;;;;;;;38.80;27.42;;;;;;;;;;5108636;28;20055;-68
2022/05/07 04:04:36;;;;;;;36.80;28.25;;;;;;;;;;5106024;28;20118;-69
2022/05/07 04:07:04;;;;;;;34.08;26.30;;;;;;;;;;5108234;28;20486;-68
2022/05/07 04:09:30;;;;;;;32.53;26.17;;;;;;;;;;5108127;28;20078;-68
2022/05/07 04:11:56;;;;;;;35.03;27.52;;;;;;;;;;5101101;28;20374;-69
2022/05/07 04:14:22;;;;;;;37.70;27.10;;;;;;;;;;5102305;28;20042;-68
2022/05/07 04:16:51;;;;;;;35.10;26.73;;;;;;;;;;5105328;28;20096;-68
2022/05/07 04:19:17;;;;;;;37.13;26.42;;;;;;;;;;5104730;28;20046;-68
2022/05/07 04:21:44;;;;;;;33.78;27.17;;;;;;;;;;5105324;28;20042;-68
2022/05/07 04:24:10;;;;;;;35.28;27.05;;;;;;;;;;5105542;28;20039;-68
2022/05/07 04:26:36;;;;;;;38.22;27.25;;;;;;;;;;5098314;28;20488;-68
2022/05/07 04:29:03;;;;;;;39.05;28.67;;;;;;;;;;5098661;28;20456;-68
2022/05/07 04:31:29;;;;;;;38.88;29.92;;;;;;;;;;5105608;28;20095;-68
2022/05/07 04:33:55;;;;;;;36.97;27.83;;;;;;;;;;5102266;28;20046;-68
2022/05/07 04:36:21;;;;;;;36.85;27.50;;;;;;;;;;5108524;28;20051;-68
2022/05/07 04:38:47;;;;;;;38.28;28.20;;;;;;;;;;5094099;28;20122;-68
2022/05/07 04:41:13;;;;;;;37.20;28.15;;;;;;;;;;5110500;27;20034;-68
2022/05/07 04:43:40;;;;;;;40.38;29.45;;;;;;;;;;5110277;28;20181;-68
2022/05/07 04:46:06;;;;;;;41.40;30.10;;;;;;;;;;5110340;28;20123;-69
2022/05/07 04:48:32;;;;;;;37.67;27.80;;;;;;;;;;5111995;28;20046;-68
2022/05/07 04:50:58;;;;;;;42.20;31.25;;;;;;;;;;5105517;28;20162;-68
2022/05/07 04:53:24;;;;;;;36.35;28.92;;;;;;;;;;5108964;28;20314;-68
2022/05/07 04:55:51;;;;;;;37.53;29.20;;;;;;;;;;5102899;28;20561;-69
2022/05/07 04:58:17;;;;;;;40.33;28.00;;;;;;;;;;5093995;28;20117;-68
2022/05/07 05:00:43;;;;;;;37.28;29.30;;;;;;;;;;5111658;28;20363;-68
2022/05/07 05:03:10;;;;;;;42.75;31.23;;;;;;;;;;5108492;28;20042;-68
2022/05/07 05:05:38;;;;;;;39.28;29.73;;;;;;;;;;5109284;28;20119;-68
2022/05/07 05:08:04;;;;;;;37.63;28.83;;;;;;;;;;5110433;28;20138;-68
2022/05/07 05:10:30;;;;;;;37.53;28.55;;;;;;;;;;5111751;28;20093;-69
2022/05/07 05:12:56;;;;;;;41.03;32.75;;;;;;;;;;5107475;28;20043;-68
2022/05/07 05:15:22;;;;;;;46.90;31.35;;;;;;;;;;5108117;28;20439;-68
2022/05/07 05:17:49;;;;;;;38.92;27.85;;;;;;;;;;5105722;28;20128;-68
2022/05/07 05:20:15;;;;;;;47.83;31.88;;;;;;;;;;5104380;28;20126;-68
2022/05/07 05:22:48;;;;;;;42.50;32.03;;;;;;;;;;5085461;28;20246;-69
2022/05/07 05:25:14;;;;;;;45.63;29.70;;;;;;;;;;5104842;28;20034;-68
2022/05/07 05:27:40;;;;;;;42.72;29.73;;;;;;;;;;5105130;28;20051;-68
2022/05/07 05:30:07;;;;;;;37.40;28.52;;;;;;;;;;5093841;28;20032;-68
2022/05/07 05:32:33;;;;;;;39.72;29.08;;;;;;;;;;5095934;28;20071;-69
2022/05/07 05:34:59;;;;;;;34.30;28.48;;;;;;;;;;5105479;28;20036;-68
2022/05/07 05:37:25;;;;;;;40.53;30.77;;;;;;;;;;5099492;28;20427;-68
2022/05/07 05:39:52;;;;;;;39.40;27.88;;;;;;;;;;5104381;28;20425;-68
2022/05/07 05:42:19;;;;;;;39.42;27.35;;;;;;;;;;5104542;28;20377;-68
2022/05/07 05:44:45;;;;;;;38.83;29.63;;;;;;;;;;5099921;28;20070;-68
2022/05/07 05:47:11;;;;;;;40.55;28.92;;;;;;;;;;5100088;28;20040;-68
2022/05/07 05:49:37;;;;;;;34.50;28.52;;;;;;;;;;5102959;28;20105;-69
2022/05/07 05:52:04;;;;;;;36.17;27.75;;;;;;;;;;5103184;28;20234;-69
2022/05/07 05:54:30;;;;;;;40.78;30.05;;;;;;;;;;5107088;28;20034;-69
2022/05/07 05:56:57;;;;;;;37.72;27.35;;;;;;;;;;5102982;28;20114;-68
2022/05/07 05:59:24;;;;;;;40.05;30.38;;;;;;;;;;5102611;28;20035;-68
2022/05/07 06:01:50;;;;;;;42.30;31.45;;;;;;;;;;5111057;28;20035;-68
2022/05/07 06:04:16;;;;;;;41.38;31.63;;;;;;;;;;5108922;28;20529;-69
2022/05/07 06:06:42;;;;;;;41.83;27.60;;;;;;;;;;5107049;28;20032;-68
2022/05/07 06:09:09;;;;;;;39.53;29.75;;;;;;;;;;5109900;28;20476;-68
2022/05/07 06:11:35;;;;;;;39.67;30.52;;;;;;;;;;5104048;27;20090;-68
2022/05/07 06:14:01;;;;;;;45.80;34.78;;;;;;;;;;5108451;28;20054;-68
2022/05/07 06:16:27;;;;;;;45.30;32.90;;;;;;;;;;5103991;28;20050;-68
2022/05/07 06:18:53;;;;;;;47.38;32.17;;;;;;;;;;5103198;28;20471;-68
2022/05/07 06:21:20;;;;;;;48.50;35.90;;;;;;;;;;5105633;28;20396;-69
2022/05/07 06:23:46;;;;;;;56.88;38.13;;;;;;;;;;5107157;28;20513;-68
2022/05/07 06:28:58;;;;;;;51.00;37.45;;;;;;;;;;5103556;28;20047;-68
2022/05/07 06:31:25;;;;;;;48.90;35.15;;;;;;;;;;5107186;28;20078;-68
2022/05/07 06:33:51;;;;;;;52.78;38.08;;;;;;;;;;5103925;28;20040;-69
2022/05/07 06:36:17;;;;;;;47.08;34.55;;;;;;;;;;5106991;28;20081;-68
2022/05/07 06:38:43;;;;;;;48.47;35.33;;;;;;;;;;5107083;28;20130;-68
2022/05/07 06:41:09;;;;;;;53.25;40.45;;;;;;;;;;5088530;28;20313;-68
2022/05/07 06:43:36;;;;;;;48.60;35.65;;;;;;;;;;5099913;28;20114;-69
2022/05/07 06:46:02;;;;;;;53.15;38.15;;;;;;;;;;5097265;28;20430;-69
2022/05/07 06:48:28;;;;;;;54.88;38.58;;;;;;;;;;5095495;28;20039;-69
2022/05/07 06:50:55;;;;;;;52.45;39.08;;;;;;;;;;5093060;28;20044;-69
2022/05/07 06:53:21;;;;;;;50.63;38.58;;;;;;;;;;5091862;28;20043;-68
2022/05/07 06:55:56;;;;;;;57.28;40.20;;;;;;;;;;5096113;28;20050;-68
2022/05/07 06:58:34;;;;;;;55.70;37.97;;;;;;;;;;5080304;28;20063;-68
2022/05/07 07:01:01;;;;;;;57.83;38.97;;;;;;;;;;5102915;28;20439;-68
2022/05/07 07:03:28;;;;;;;53.15;35.70;;;;;;;;;;5106432;28;20035;-68
2022/05/07 07:05:56;;;;;;;46.30;33.58;;;;;;;;;;5103364;28;20047;-69
2022/05/07 07:08:22;;;;;;;54.88;37.53;;;;;;;;;;5093628;28;20028;-68
2022/05/07 07:10:48;;;;;;;47.42;32.08;;;;;;;;;;5105965;28;20389;-68
2022/05/07 07:13:16;;;;;;;59.05;39.70;;;;;;;;;;5106636;28;20043;-69
2022/05/07 07:15:42;;;;;;;50.60;33.90;;;;;;;;;;5104495;28;20489;-69
2022/05/07 07:18:09;;;;;;;48.20;35.42;;;;;;;;;;5104987;28;20415;-69
2022/05/07 07:20:43;;;;;;;51.78;36.55;;;;;;;;;;5103638;28;20538;-68
2022/05/07 07:23:11;;;;;;;46.67;34.88;;;;;;;;;;5105542;28;20109;-68
2022/05/07 07:25:44;;;;;;;52.15;36.72;;;;;;;;;;5101790;28;20032;-69
2022/05/07 07:28:10;;;;;;;;;;;;;;;;;;5089339;28;20530;-69
2022/05/07 07:30:36;;;;;;;55.38;35.05;;;;;;;;;;5089110;28;19916;-69
2022/05/07 07:33:03;;;;;;;53.75;33.38;;;;;;;;;;5094578;28;20043;-69
2022/05/07 07:35:29;;;;;;;42.45;31.55;;;;;;;;;;5090270;28;20039;-69
2022/05/07 07:37:56;;;;;;;47.42;33.17;;;;;;;;;;5091604;28;20142;-69
2022/05/07 07:40:22;;;;;;;47.42;34.28;;;;;;;;;;5095470;28;20474;-69
2022/05/07 07:42:48;;;;;;;48.97;33.53;;;;;;;;;;5091215;28;20040;-68
2022/05/07 07:48:01;;;;;;;51.50;35.20;;;;;;;;;;5101645;28;20112;-69
2022/05/07 07:50:30;;;;;;;50.80;34.72;;;;;;;;;;5103246;28;20036;-68
2022/05/07 07:52:57;;;;;;;50.13;34.20;;;;;;;;;;5100397;28;20046;-68
2022/05/07 07:55:24;;;;;;;49.92;34.30;;;;;;;;;;5104602;28;20035;-68
2022/05/07 07:57:54;;;;;;;57.03;37.75;;;;;;;;;;5105201;28;20039;-69
2022/05/07 08:00:20;;;;;;;51.30;34.17;;;;;;;;;;5104534;28;20119;-69
2022/05/07 08:02:47;;;;;;;60.75;39.28;;;;;;;;;;5103855;28;20043;-69
2022/05/07 08:05:13;;;;;;;57.35;39.28;;;;;;;;;;5104173;28;20060;-69
2022/05/07 08:13:09;;;;;;;63.97;42.92;;;;;;;;;;5108578;28;20055;-69
2022/05/07 08:15:35;;;;;;;66.25;41.25;;;;;;;;;;5109294;28;20497;-69
2022/05/07 08:18:02;;;;;;;65.18;44.85;;;;;;;;;;5109065;27;20040;-69
2022/05/07 08:20:28;;;;;;;65.78;43.30;;;;;;;;;;5108284;28;20047;-69
2022/05/07 08:22:54;;;;;;;58.33;39.55;;;;;;;;;;5107132;28;20080;-69
2022/05/07 08:25:20;;;;;;;61.15;39.10;;;;;;;;;;5109123;28;20051;-69
2022/05/07 08:27:46;;;;;;;61.28;37.92;;;;;;;;;;5109229;27;20067;-69
2022/05/07 08:30:13;;;;;;;58.60;40.30;;;;;;;;;;5106743;28;20039;-69
2022/05/07 08:32:39;;;;;;;62.13;40.22;;;;;;;;;;5106330;28;20043;-69
2022/05/07 08:35:06;;;;;;;58.97;38.38;;;;;;;;;;5107179;28;20485;-69
2022/05/07 08:37:32;;;;;;;57.28;36.78;;;;;;;;;;5088115;28;20055;-69
2022/05/07 08:40:01;;;;;;;58.42;39.22;;;;;;;;;;5090307;28;20062;-69
2022/05/07 08:42:31;;;;;;;54.17;35.25;;;;;;;;;;5103878;28;20049;-69
2022/05/07 08:44:57;;;;;;;58.83;37.90;;;;;;;;;;5107375;28;20374;-69
2022/05/07 08:47:24;;;;;;;57.58;35.00;;;;;;;;;;5106975;28;20415;-69
2022/05/07 08:49:50;;;;;;;49.28;32.95;;;;;;;;;;5105827;28;20138;-69
2022/05/07 08:52:20;;;;;;;46.83;31.98;;;;;;;;;;5081165;28;20437;-69
2022/05/07 08:54:47;;;;;;;43.60;29.48;;;;;;;;;;5100746;28;20076;-69
2022/05/07 08:57:14;;;;;;;47.45;30.90;;;;;;;;;;5100420;28;20036;-70
2022/05/07 08:59:41;;;;;;;42.67;29.52;;;;;;;;;;5108011;28;20075;-69
2022/05/07 09:02:08;;;;;;;47.78;32.28;;;;;;;;;;5103993;28;20527;-69
2022/05/07 09:04:36;;;;;;;48.85;34.65;;;;;;;;;;5101497;28;20459;-69
2022/05/07 09:07:05;;;;;;;42.15;30.30;;;;;;;;;;5107840;28;20048;-69
2022/05/07 09:09:31;;;;;;;49.72;30.00;;;;;;;;;;5101463;28;20047;-69
2022/05/07 09:11:58;;;;;;;37.20;26.73;;;;;;;;;;5102915;28;20039;-69
2022/05/07 09:14:31;;;;;;;35.97;23.63;;;;;;;;;;5094343;28;20038;-70
2022/05/07 09:17:00;;;;;;;40.95;25.02;;;;;;;;;;5110034;28;20117;-68
2022/05/07 09:19:27;;;;;;;32.70;22.70;;;;;;;;;;5109133;28;20079;-69
2022/05/07 09:22:07;;;;;;;38.28;26.63;;;;;;;;;;5103117;28;20047;-69
2022/05/07 09:24:33;;;;;;;43.47;27.52;;;;;;;;;;5104002;28;20626;-70
2022/05/07 09:27:00;;;;;;;49.75;29.80;;;;;;;;;;5112550;28;20096;-69
2022/05/07 09:29:30;;;;;;;43.55;29.30;;;;;;;;;;5104106;28;20043;-70
2022/05/07 09:32:07;;;;;;;46.75;31.35;;;;;;;;;;5101204;28;20310;-69
2022/05/07 09:37:19;;;;;;;36.78;27.10;;;;;;;;;;5108782;28;20052;-69
2022/05/07 09:39:49;;;;;;;35.55;25.27;;;;;;;;;;5088548;28;20050;-69
2022/05/07 09:42:19;;;;;;;35.58;25.23;;;;;;;;;;5110627;28;20118;-69
2022/05/07 09:44:46;;;;;;;49.72;31.23;;;;;;;;;;5107917;28;20475;-69
2022/05/07 09:47:13;;;;;;;60.83;38.17;;;;;;;;;;5108144;28;20039;-69
2022/05/07 09:50:20;;;;;;;64.25;42.33;;;;;;;;;;5107648;28;20386;-69
2022/05/07 09:52:28;;;;;;;59.65;40.92;;;;;;;;;;5105200;28;20046;-69
2022/05/07 09:57:39;;;;;;;48.30;32.17;;;;;;;;;;5103479;28;20058;-69
2022/05/07 10:00:07;;;;;;;56.53;32.05;;;;;;;;;;5107034;28;20119;-70
2022/05/07 10:02:49;;;;;;;44.47;30.42;;;;;;;;;;5089657;28;20043;-69
2022/05/07 10:05:34;;;;;;;38.33;24.10;;;;;;;;;;5105168;28;20039;-70
2022/05/07 10:08:19;;;;;;;38.25;22.95;;;;;;;;;;5110655;28;20389;-70
2022/05/07 10:10:46;;;;;;;36.78;23.75;;;;;;;;;;5105206;28;20035;-70
2022/05/07 10:13:17;;;;;;;32.35;21.17;;;;;;;;;;5107984;28;20043;-69
2022/05/07 10:15:46;;;;;;;27.65;18.33;;;;;;;;;;5109801;28;20473;-68
2022/05/07 10:18:16;;;;;;;27.20;19.33;;;;;;;;;;5111939;28;20040;-70
2022/05/07 10:20:44;;;;;;;24.63;18.23;;;;;;;;;;5102268;28;20047;-68
2022/05/07 10:23:11;;;;;;;23.17;16.65;;;;;;;;;;5110683;28;20067;-69
2022/05/07 10:25:38;;;;;;;25.90;16.88;;;;;;;;;;5093485;28;20629;-69
2022/05/07 10:28:14;;;;;;;26.95;16.45;;;;;;;;;;5111942;28;20043;-69
2022/05/07 10:30:49;;;;;;;21.35;13.68;;;;;;;;;;5109014;28;20451;-68
2022/05/07 10:33:18;;;;;;;18.80;12.15;;;;;;;;;;5110394;28;20428;-69
2022/05/07 10:35:44;;;;;;;18.13;10.95;;;;;;;;;;5098110;28;20043;-68
2022/05/07 10:38:15;;;;;;;13.60;8.68;;;;;;;;;;5099345;28;20047;-69
2022/05/07 10:40:51;;;;;;;15.90;10.10;;;;;;;;;;5100834;28;20347;-69
2022/05/07 10:43:24;;;;;;;13.48;9.57;;;;;;;;;;5093269;28;20036;-69
2022/05/07 10:45:55;;;;;;;14.93;8.93;;;;;;;;;;5096610;28;20394;-69
2022/05/07 10:48:21;;;;;;;15.00;10.25;;;;;;;;;;5101803;28;20043;-69
2022/05/07 10:50:51;;;;;;;13.05;8.80;;;;;;;;;;5100302;28;20054;-69
2022/05/07 10:53:18;;;;;;;17.40;9.15;;;;;;;;;;5110039;28;20046;-69
2022/05/07 10:55:44;;;;;;;21.75;11.43;;;;;;;;;;5107892;28;20040;-69
2022/05/07 10:58:10;;;;;;;15.75;8.93;;;;;;;;;;5108522;28;20043;-69
2022/05/07 11:00:36;;;;;;;22.05;12.50;;;;;;;;;;5109090;28;20038;-69
2022/05/07 11:03:02;;;;;;;19.55;13.85;;;;;;;;;;5110110;28;20044;-69
2022/05/07 11:05:35;;;;;;;24.40;15.10;;;;;;;;;;5104995;28;20032;-68
2022/05/07 11:08:02;;;;;;;24.77;14.82;;;;;;;;;;5108090;28;20051;-68
2022/05/07 11:10:29;;;;;;;20.50;15.02;;;;;;;;;;5107562;28;20044;-69
2022/05/07 11:13:08;;;;;;;22.00;15.77;;;;;;;;;;5108359;28;20062;-68
2022/05/07 11:15:34;;;;;;;23.42;13.00;;;;;;;;;;5106607;28;20052;-69
2022/05/07 11:18:00;;;;;;;19.35;12.80;;;;;;;;;;5103315;28;20505;-69
2022/05/07 11:20:35;;;;;;;16.23;12.48;;;;;;;;;;5102653;28;20044;-68
2022/05/07 11:23:03;;;;;;;15.88;11.60;;;;;;;;;;5106373;28;20488;-69
2022/05/07 11:25:30;;;;;;;17.45;10.98;;;;;;;;;;5107628;28;20570;-68
2022/05/07 11:27:58;;;;;;;23.13;12.40;;;;;;;;;;5101840;28;20039;-69
2022/05/07 11:30:25;;;;;;;19.05;12.65;;;;;;;;;;5102039;28;20040;-69
2022/05/07 11:32:53;;;;;;;17.33;11.48;;;;;;;;;;5108238;28;20557;-69
2022/05/07 11:35:24;;;;;;;19.20;12.52;;;;;;;;;;5107699;28;20055;-68
2022/05/07 11:37:50;;;;;;;15.35;11.40;;;;;;;;;;5107635;28;20051;-69
2022/05/07 11:40:27;;;;;;;13.90;9.73;;;;;;;;;;5108577;28;20059;-68
2022/05/07 11:45:38;;;;;;;14.70;11.38;;;;;;;;;;5104787;28;20058;-68
2022/05/07 11:48:14;;;;;;;14.10;10.73;;;;;;;;;;5108979;28;20130;-69
2022/05/07 11:50:52;;;;;;;17.83;9.68;;;;;;;;;;5087844;28;20382;-68
2022/05/07 11:53:20;;;;;;;19.55;11.32;;;;;;;;;;5107342;28;20039;-69
2022/05/07 11:55:47;;;;;;;14.98;10.15;;;;;;;;;;5107098;28;20181;-68
2022/05/07 11:58:13;;;;;;;14.52;11.25;;;;;;;;;;5107034;28;20042;-69
2022/05/07 12:00:42;;;;;;;18.30;12.27;;;;;;;;;;5108602;28;20028;-69
2022/05/07 12:03:09;;;;;;;18.30;13.43;;;;;;;;;;5107536;28;20242;-69
2022/05/07 12:05:45;;;;;;;20.00;11.07;;;;;;;;;;5107640;28;20035;-69
2022/05/07 12:08:16;;;;;;;14.30;9.85;;;;;;;;;;5107218;28;20103;-68
2022/05/07 12:10:42;;;;;;;14.63;9.90;;;;;;;;;;5107543;28;20043;-69
2022/05/07 12:13:09;;;;;;;13.20;9.35;;;;;;;;;;5108391;28;20040;-69
2022/05/07 12:18:27;;;;;;;11.95;8.15;;;;;;;;;;5098226;28;20087;-69
2022/05/07 12:20:54;;;;;;;15.90;11.15;;;;;;;;;;5107435;28;20048;-69
2022/05/07 12:31:35;;;;;;;14.95;10.85;;;;;;;;;;5108086;28;20047;-69
2022/05/07 12:34:02;;;;;;;16.80;11.48;;;;;;;;;;5104540;28;20106;-69
2022/05/07 12:36:28;;;;;;;20.42;11.75;;;;;;;;;;5107560;28;20059;-68
2022/05/07 12:38:59;;;;;;;17.80;11.18;;;;;;;;;;5108697;28;20040;-68
2022/05/07 12:41:26;;;;;;;15.50;11.07;;;;;;;;;;5106733;28;20173;-69
2022/05/07 12:43:53;;;;;;;14.63;9.65;;;;;;;;;;5104790;28;20036;-69
2022/05/07 12:46:19;;;;;;;14.25;9.45;;;;;;;;;;5108611;28;20509;-69
2022/05/07 12:48:45;;;;;;;13.63;8.95;;;;;;;;;;5105965;28;20043;-69
2022/05/07 12:51:12;;;;;;;10.45;8.95;;;;;;;;;;5106532;28;20139;-69
2022/05/07 12:53:38;;;;;;;11.85;8.20;;;;;;;;;;5106526;28;20489;-69
2022/05/07 12:56:05;;;;;;;10.70;8.27;;;;;;;;;;5106754;28;20568;-69
2022/05/07 12:58:31;;;;;;;12.82;9.60;;;;;;;;;;5111495;28;20039;-69
2022/05/07 13:00:57;;;;;;;13.25;9.50;;;;;;;;;;5112015;28;20044;-69
2022/05/07 13:03:24;;;;;;;12.05;8.32;;;;;;;;;;5109206;28;20524;-69
2022/05/07 13:05:50;;;;;;;10.15;7.50;;;;;;;;;;5092486;28;20416;-68
2022/05/07 13:08:16;;;;;;;9.30;6.93;;;;;;;;;;5111343;28;20036;-69
2022/05/07 13:10:43;;;;;;;16.17;7.75;;;;;;;;;;5111534;28;20039;-69
2022/05/07 13:13:10;;;;;;;11.48;7.72;;;;;;;;;;5105465;28;20517;-69
2022/05/07 13:15:36;;;;;;;9.73;6.53;;;;;;;;;;5109872;28;20131;-69
2022/05/07 13:18:03;;;;;;;10.40;5.75;;;;;;;;;;5088634;28;20094;-69
2022/05/07 13:20:30;;;;;;;9.13;5.28;;;;;;;;;;5104738;28;20097;-69
2022/05/07 13:22:57;;;;;;;7.45;5.43;;;;;;;;;;5104138;28;20352;-69
2022/05/07 13:25:23;;;;;;;9.35;6.57;;;;;;;;;;5111692;28;20205;-69
2022/05/07 13:27:50;;;;;;;8.85;5.20;;;;;;;;;;5109936;28;20383;-69
2022/05/07 13:30:17;;;;;;;6.07;4.20;;;;;;;;;;5111236;28;20043;-69
2022/05/07 13:32:46;;;;;;;6.60;4.13;;;;;;;;;;5107652;28;20544;-69
2022/05/07 13:35:12;;;;;;;6.72;3.97;;;;;;;;;;5104012;28;20043;-69
2022/05/07 13:37:39;;;;;;;5.43;4.00;;;;;;;;;;5110638;28;20447;-70
2022/05/07 13:40:06;;;;;;;11.70;5.07;;;;;;;;;;5111061;28;20039;-69
2022/05/07 13:42:33;;;;;;;5.63;3.88;;;;;;;;;;5110061;28;20043;-70
2022/05/07 13:44:59;;;;;;;8.27;5.32;;;;;;;;;;5110696;28;20089;-70
2022/05/07 13:47:25;;;;;;;10.20;6.90;;;;;;;;;;5111003;28;20039;-70
2022/05/07 13:49:51;;;;;;;10.38;5.53;;;;;;;;;;5108168;28;20050;-70
2022/05/07 13:52:18;;;;;;;9.23;6.82;;;;;;;;;;5109280;28;20104;-70
2022/05/07 13:54:44;;;;;;;11.10;6.80;;;;;;;;;;5110485;28;20039;-69
2022/05/07 13:57:10;;;;;;;8.93;4.78;;;;;;;;;;5098039;28;20036;-69
2022/05/07 13:59:36;;;;;;;6.45;3.92;;;;;;;;;;5096460;28;20054;-69
2022/05/07 14:02:03;;;;;;;5.97;3.80;;;;;;;;;;5094835;28;20405;-69
2022/05/07 14:04:29;;;;;;;7.53;4.78;;;;;;;;;;5077670;28;20031;-70
2022/05/07 14:06:56;;;;;;;8.35;4.80;;;;;;;;;;5078229;28;20040;-69
2022/05/07 14:09:22;;;;;;;6.82;3.88;;;;;;;;;;5094089;28;20075;-69
2022/05/07 14:11:49;;;;;;;5.47;3.88;;;;;;;;;;5097171;28;20501;-69
2022/05/07 14:14:15;;;;;;;5.88;3.95;;;;;;;;;;5108532;28;20184;-70
2022/05/07 14:16:42;;;;;;;7.35;2.75;;;;;;;;;;5110743;28;20035;-69
2022/05/07 14:19:08;;;;;;;6.38;2.85;;;;;;;;;;5108399;28;20513;-69
2022/05/07 14:21:36;;;;;;;4.40;3.15;;;;;;;;;;5109251;28;20031;-70
2022/05/07 14:24:02;;;;;;;4.25;3.10;;;;;;;;;;5109552;28;20039;-69
2022/05/07 14:26:28;;;;;;;4.97;2.85;;;;;;;;;;5108511;28;20175;-70
2022/05/07 14:28:55;;;;;;;3.97;2.40;;;;;;;;;;5108990;28;20050;-69
2022/05/07 14:31:21;;;;;;;3.85;2.05;;;;;;;;;;5100941;28;20040;-69
2022/05/07 14:33:47;;;;;;;3.08;1.88;;;;;;;;;;5108030;28;20043;-69
2022/05/07 14:36:13;;;;;;;4.47;2.40;;;;;;;;;;5108191;28;20040;-69
2022/05/07 14:38:39;;;;;;;4.38;2.97;;;;;;;;;;5107398;28;20047;-69
2022/05/07 14:41:05;;;;;;;8.35;5.13;;;;;;;;;;5104571;28;20028;-69
2022/05/07 14:43:32;;;;;;;7.80;5.82;;;;;;;;;;5106387;28;20322;-69
2022/05/07 14:45:58;;;;;;;10.18;5.72;;;;;;;;;;5107673;28;20048;-68
2022/05/07 14:48:24;;;;;;;7.80;4.63;;;;;;;;;;5107053;28;20082;-69
2022/05/07 14:50:50;;;;;;;6.95;4.47;;;;;;;;;;5107129;28;20048;-69
2022/05/07 14:53:16;;;;;;;8.55;4.97;;;;;;;;;;5109662;28;20039;-69
2022/05/07 14:55:43;;;;;;;8.35;4.75;;;;;;;;;;5088686;28;20032;-69
2022/05/07 14:58:10;;;;;;;12.88;5.50;;;;;;;;;;5108606;28;20080;-69
2022/05/07 15:00:36;;;;;;;9.40;5.47;;;;;;;;;;5090632;28;20050;-69
2022/05/07 15:03:03;;;;;;;9.88;5.28;;;;;;;;;;5109849;28;20281;-70